sensor_id;sensor_type;location;lat;lon;timestamp;P1;durP1;ratioP1;P2;durP2;ratioP2
75427;SDS011;64008;55.612;37.698;2023-02-26T00:01:25;7.03;;;3.53;;
75427;SDS011;64008;55.612;37.698;2023-02-26T00:03:53;8.88;;;3.80;;
75427;SDS011;64008;55.612;37.698;2023-02-26T00:06:21;6.70;;;3.25;;
75427;SDS011;64008;55.612;37.698;2023-02-26T00:08:46;7.30;;;3.20;;
75427;SDS011;64008;55.612;37.698;2023-02-26T00:11:12;7.70;;;3.83;;
75427;SDS011;64008;55.612;37.698;2023-02-26T00:13:39;6.57;;;3.40;;
75427;SDS011;64008;55.612;37.698;2023-02-26T00:16:12;7.18;;;3.60;;
75427;SDS011;64008;55.612;37.698;2023-02-26T00:18:54;6.85;;;3.45;;
75427;SDS011;64008;55.612;37.698;2023-02-26T00:21:24;6.15;;;3.17;;
75427;SDS011;64008;55.612;37.698;2023-02-26T00:23:51;6.53;;;3.20;;
75427;SDS011;64008;55.612;37.698;2023-02-26T00:26:17;6.38;;;3.13;;
75427;SDS011;64008;55.612;37.698;2023-02-26T00:28:42;5.95;;;2.92;;
75427;SDS011;64008;55.612;37.698;2023-02-26T00:31:08;6.45;;;3.30;;
75427;SDS011;64008;55.612;37.698;2023-02-26T00:33:34;6.65;;;3.05;;
75427;SDS011;64008;55.612;37.698;2023-02-26T00:39:08;7.22;;;3.00;;
75427;SDS011;64008;55.612;37.698;2023-02-26T00:41:41;6.75;;;2.92;;
75427;SDS011;64008;55.612;37.698;2023-02-26T00:44:07;5.97;;;3.05;;
75427;SDS011;64008;55.612;37.698;2023-02-26T00:52:13;5.63;;;2.70;;
75427;SDS011;64008;55.612;37.698;2023-02-26T00:54:44;5.82;;;2.88;;
75427;SDS011;64008;55.612;37.698;2023-02-26T00:57:10;4.50;;;2.10;;
75427;SDS011;64008;55.612;37.698;2023-02-26T00:59:35;6.95;;;2.85;;
75427;SDS011;64008;55.612;37.698;2023-02-26T01:02:01;5.60;;;2.75;;
75427;SDS011;64008;55.612;37.698;2023-02-26T01:04:26;5.80;;;2.63;;
75427;SDS011;64008;55.612;37.698;2023-02-26T01:06:53;6.63;;;2.38;;
75427;SDS011;64008;55.612;37.698;2023-02-26T01:11:58;5.32;;;2.40;;
75427;SDS011;64008;55.612;37.698;2023-02-26T01:14:25;4.80;;;2.20;;
75427;SDS011;64008;55.612;37.698;2023-02-26T01:19:19;4.63;;;2.25;;
75427;SDS011;64008;55.612;37.698;2023-02-26T01:21:59;5.45;;;1.88;;
75427;SDS011;64008;55.612;37.698;2023-02-26T01:24:29;5.50;;;2.45;;
75427;SDS011;64008;55.612;37.698;2023-02-26T01:26:55;5.10;;;2.17;;
75427;SDS011;64008;55.612;37.698;2023-02-26T01:29:21;4.53;;;2.20;;
75427;SDS011;64008;55.612;37.698;2023-02-26T01:34:17;4.90;;;2.05;;
75427;SDS011;64008;55.612;37.698;2023-02-26T01:37:30;4.13;;;1.83;;
75427;SDS011;64008;55.612;37.698;2023-02-26T01:42:30;4.30;;;1.90;;
75427;SDS011;64008;55.612;37.698;2023-02-26T01:45:00;4.95;;;2.08;;
75427;SDS011;64008;55.612;37.698;2023-02-26T01:50:25;4.07;;;1.88;;
75427;SDS011;64008;55.612;37.698;2023-02-26T01:55:59;3.60;;;1.85;;
75427;SDS011;64008;55.612;37.698;2023-02-26T01:58:29;3.63;;;1.58;;
75427;SDS011;64008;55.612;37.698;2023-02-26T02:00:57;4.00;;;1.98;;
75427;SDS011;64008;55.612;37.698;2023-02-26T02:03:23;3.97;;;1.73;;
75427;SDS011;64008;55.612;37.698;2023-02-26T02:05:54;4.00;;;1.60;;
75427;SDS011;64008;55.612;37.698;2023-02-26T02:08:23;4.30;;;1.73;;
75427;SDS011;64008;55.612;37.698;2023-02-26T02:10:49;3.75;;;1.63;;
75427;SDS011;64008;55.612;37.698;2023-02-26T02:30:02;4.05;;;1.40;;
75427;SDS011;64008;55.612;37.698;2023-02-26T02:32:56;3.67;;;1.42;;
75427;SDS011;64008;55.612;37.698;2023-02-26T02:35:24;4.25;;;1.48;;
75427;SDS011;64008;55.612;37.698;2023-02-26T02:38:10;3.70;;;1.50;;
75427;SDS011;64008;55.612;37.698;2023-02-26T02:43:12;3.45;;;1.55;;
75427;SDS011;64008;55.612;37.698;2023-02-26T02:45:53;3.28;;;1.40;;
75427;SDS011;64008;55.612;37.698;2023-02-26T02:56:16;3.65;;;1.65;;
75427;SDS011;64008;55.612;37.698;2023-02-26T02:58:51;4.07;;;1.88;;
75427;SDS011;64008;55.612;37.698;2023-02-26T03:01:30;5.18;;;1.70;;
75427;SDS011;64008;55.612;37.698;2023-02-26T03:06:33;3.95;;;1.73;;
75427;SDS011;64008;55.612;37.698;2023-02-26T03:09:00;8.70;;;2.20;;
75427;SDS011;64008;55.612;37.698;2023-02-26T03:11:28;5.00;;;2.22;;
75427;SDS011;64008;55.612;37.698;2023-02-26T03:13:54;4.53;;;2.10;;
75427;SDS011;64008;55.612;37.698;2023-02-26T03:19:22;5.00;;;2.10;;
75427;SDS011;64008;55.612;37.698;2023-02-26T03:38:03;4.03;;;1.70;;
75427;SDS011;64008;55.612;37.698;2023-02-26T03:40:36;4.30;;;2.05;;
75427;SDS011;64008;55.612;37.698;2023-02-26T03:43:30;6.53;;;1.85;;
75427;SDS011;64008;55.612;37.698;2023-02-26T03:46:02;3.45;;;1.30;;
75427;SDS011;64008;55.612;37.698;2023-02-26T03:48:30;4.65;;;1.80;;
75427;SDS011;64008;55.612;37.698;2023-02-26T03:51:00;3.63;;;1.70;;
75427;SDS011;64008;55.612;37.698;2023-02-26T03:56:24;4.13;;;1.60;;
75427;SDS011;64008;55.612;37.698;2023-02-26T03:59:10;3.55;;;1.42;;
75427;SDS011;64008;55.612;37.698;2023-02-26T04:01:57;3.85;;;1.55;;
75427;SDS011;64008;55.612;37.698;2023-02-26T04:04:30;4.20;;;1.17;;
75427;SDS011;64008;55.612;37.698;2023-02-26T04:07:12;4.05;;;1.55;;
75427;SDS011;64008;55.612;37.698;2023-02-26T04:09:40;4.05;;;1.30;;
75427;SDS011;64008;55.612;37.698;2023-02-26T04:12:07;3.58;;;1.70;;
75427;SDS011;64008;55.612;37.698;2023-02-26T04:14:32;4.10;;;1.60;;
75427;SDS011;64008;55.612;37.698;2023-02-26T04:16:58;3.55;;;1.40;;
75427;SDS011;64008;55.612;37.698;2023-02-26T04:19:23;4.53;;;1.48;;
75427;SDS011;64008;55.612;37.698;2023-02-26T04:21:49;3.35;;;1.27;;
75427;SDS011;64008;55.612;37.698;2023-02-26T04:24:14;3.47;;;1.40;;
75427;SDS011;64008;55.612;37.698;2023-02-26T04:26:40;4.45;;;1.40;;
75427;SDS011;64008;55.612;37.698;2023-02-26T04:29:05;3.80;;;1.67;;
75427;SDS011;64008;55.612;37.698;2023-02-26T04:31:31;5.28;;;2.28;;
75427;SDS011;64008;55.612;37.698;2023-02-26T04:33:56;3.88;;;1.58;;
75427;SDS011;64008;55.612;37.698;2023-02-26T04:36:22;3.80;;;1.35;;
75427;SDS011;64008;55.612;37.698;2023-02-26T04:38:47;5.65;;;1.38;;
75427;SDS011;64008;55.612;37.698;2023-02-26T04:41:13;3.25;;;1.20;;
75427;SDS011;64008;55.612;37.698;2023-02-26T04:43:39;3.60;;;1.33;;
75427;SDS011;64008;55.612;37.698;2023-02-26T04:46:04;3.30;;;1.13;;
75427;SDS011;64008;55.612;37.698;2023-02-26T04:48:30;3.30;;;1.30;;
75427;SDS011;64008;55.612;37.698;2023-02-26T04:50:55;3.45;;;1.30;;
75427;SDS011;64008;55.612;37.698;2023-02-26T04:53:21;4.05;;;1.30;;
75427;SDS011;64008;55.612;37.698;2023-02-26T04:55:47;3.30;;;1.20;;
75427;SDS011;64008;55.612;37.698;2023-02-26T04:58:13;3.30;;;1.20;;
75427;SDS011;64008;55.612;37.698;2023-02-26T05:00:39;2.85;;;1.17;;
75427;SDS011;64008;55.612;37.698;2023-02-26T05:03:04;4.13;;;1.00;;
75427;SDS011;64008;55.612;37.698;2023-02-26T05:05:30;3.13;;;1.20;;
75427;SDS011;64008;55.612;37.698;2023-02-26T05:07:56;2.90;;;1.08;;
75427;SDS011;64008;55.612;37.698;2023-02-26T05:10:22;3.05;;;1.20;;
75427;SDS011;64008;55.612;37.698;2023-02-26T05:12:48;3.00;;;1.00;;
75427;SDS011;64008;55.612;37.698;2023-02-26T05:15:14;2.85;;;0.90;;
75427;SDS011;64008;55.612;37.698;2023-02-26T05:17:39;3.33;;;0.98;;
75427;SDS011;64008;55.612;37.698;2023-02-26T05:20:05;3.88;;;0.93;;
75427;SDS011;64008;55.612;37.698;2023-02-26T05:22:34;4.20;;;1.00;;
75427;SDS011;64008;55.612;37.698;2023-02-26T05:25:01;2.70;;;0.95;;
75427;SDS011;64008;55.612;37.698;2023-02-26T05:27:27;2.47;;;0.93;;
75427;SDS011;64008;55.612;37.698;2023-02-26T05:29:52;2.45;;;0.88;;
75427;SDS011;64008;55.612;37.698;2023-02-26T05:32:18;3.17;;;0.98;;
75427;SDS011;64008;55.612;37.698;2023-02-26T05:34:43;2.28;;;0.85;;
75427;SDS011;64008;55.612;37.698;2023-02-26T05:37:09;2.45;;;0.90;;
75427;SDS011;64008;55.612;37.698;2023-02-26T05:39:34;2.28;;;0.73;;
75427;SDS011;64008;55.612;37.698;2023-02-26T05:42:00;3.05;;;0.80;;
75427;SDS011;64008;55.612;37.698;2023-02-26T05:44:25;1.95;;;0.73;;
75427;SDS011;64008;55.612;37.698;2023-02-26T05:46:51;2.13;;;0.85;;
75427;SDS011;64008;55.612;37.698;2023-02-26T05:49:16;2.10;;;0.80;;
75427;SDS011;64008;55.612;37.698;2023-02-26T05:51:42;2.10;;;0.65;;
75427;SDS011;64008;55.612;37.698;2023-02-26T05:54:08;2.05;;;0.70;;
75427;SDS011;64008;55.612;37.698;2023-02-26T05:56:34;2.40;;;0.80;;
75427;SDS011;64008;55.612;37.698;2023-02-26T05:59:00;1.80;;;0.73;;
75427;SDS011;64008;55.612;37.698;2023-02-26T06:01:26;2.20;;;0.80;;
75427;SDS011;64008;55.612;37.698;2023-02-26T06:03:52;2.33;;;0.75;;
75427;SDS011;64008;55.612;37.698;2023-02-26T06:06:17;1.40;;;0.55;;
75427;SDS011;64008;55.612;37.698;2023-02-26T06:08:44;2.17;;;0.70;;
75427;SDS011;64008;55.612;37.698;2023-02-26T06:13:36;1.35;;;0.55;;
75427;SDS011;64008;55.612;37.698;2023-02-26T06:16:02;3.00;;;0.82;;
75427;SDS011;64008;55.612;37.698;2023-02-26T06:18:27;3.67;;;0.80;;
75427;SDS011;64008;55.612;37.698;2023-02-26T06:20:53;2.63;;;0.55;;
75427;SDS011;64008;55.612;37.698;2023-02-26T06:23:18;1.48;;;0.50;;
75427;SDS011;64008;55.612;37.698;2023-02-26T06:25:44;1.00;;;0.50;;
75427;SDS011;64008;55.612;37.698;2023-02-26T06:28:10;2.72;;;0.70;;
75427;SDS011;64008;55.612;37.698;2023-02-26T06:30:35;1.65;;;0.70;;
75427;SDS011;64008;55.612;37.698;2023-02-26T06:33:01;1.70;;;0.50;;
75427;SDS011;64008;55.612;37.698;2023-02-26T06:35:26;3.08;;;0.80;;
75427;SDS011;64008;55.612;37.698;2023-02-26T06:37:55;1.30;;;0.45;;
75427;SDS011;64008;55.612;37.698;2023-02-26T06:40:21;1.30;;;0.50;;
75427;SDS011;64008;55.612;37.698;2023-02-26T06:42:46;2.08;;;0.82;;
75427;SDS011;64008;55.612;37.698;2023-02-26T06:45:12;2.00;;;0.70;;
75427;SDS011;64008;55.612;37.698;2023-02-26T06:47:38;1.83;;;0.70;;
75427;SDS011;64008;55.612;37.698;2023-02-26T06:50:04;1.80;;;0.70;;
75427;SDS011;64008;55.612;37.698;2023-02-26T06:54:55;4.07;;;0.50;;
75427;SDS011;64008;55.612;37.698;2023-02-26T06:57:21;1.00;;;0.40;;
75427;SDS011;64008;55.612;37.698;2023-02-26T06:59:46;1.38;;;0.50;;
75427;SDS011;64008;55.612;37.698;2023-02-26T07:02:16;1.90;;;0.55;;
75427;SDS011;64008;55.612;37.698;2023-02-26T07:04:43;1.70;;;1.00;;
75427;SDS011;64008;55.612;37.698;2023-02-26T07:07:09;1.33;;;0.47;;
75427;SDS011;64008;55.612;37.698;2023-02-26T07:09:35;3.42;;;0.60;;
75427;SDS011;64008;55.612;37.698;2023-02-26T07:12:00;0.93;;;0.35;;
75427;SDS011;64008;55.612;37.698;2023-02-26T07:14:26;1.42;;;0.55;;
75427;SDS011;64008;55.612;37.698;2023-02-26T07:16:51;1.92;;;0.68;;
75427;SDS011;64008;55.612;37.698;2023-02-26T07:19:17;1.52;;;0.50;;
75427;SDS011;64008;55.612;37.698;2023-02-26T07:21:42;1.98;;;0.50;;
75427;SDS011;64008;55.612;37.698;2023-02-26T07:24:08;1.73;;;0.60;;
75427;SDS011;64008;55.612;37.698;2023-02-26T07:26:33;2.55;;;0.70;;
75427;SDS011;64008;55.612;37.698;2023-02-26T07:28:59;1.55;;;0.50;;
75427;SDS011;64008;55.612;37.698;2023-02-26T07:31:24;2.90;;;0.60;;
75427;SDS011;64008;55.612;37.698;2023-02-26T07:33:50;2.03;;;0.88;;
75427;SDS011;64008;55.612;37.698;2023-02-26T07:36:15;2.75;;;0.60;;
75427;SDS011;64008;55.612;37.698;2023-02-26T07:38:41;2.03;;;0.60;;
75427;SDS011;64008;55.612;37.698;2023-02-26T07:41:07;1.30;;;0.47;;
75427;SDS011;64008;55.612;37.698;2023-02-26T07:43:32;1.67;;;0.75;;
75427;SDS011;64008;55.612;37.698;2023-02-26T07:45:58;1.98;;;0.50;;
75427;SDS011;64008;55.612;37.698;2023-02-26T07:48:23;1.27;;;0.50;;
75427;SDS011;64008;55.612;37.698;2023-02-26T07:50:53;1.90;;;0.50;;
75427;SDS011;64008;55.612;37.698;2023-02-26T07:53:19;1.77;;;0.60;;
75427;SDS011;64008;55.612;37.698;2023-02-26T07:55:45;1.67;;;0.60;;
75427;SDS011;64008;55.612;37.698;2023-02-26T07:58:11;2.15;;;0.60;;
75427;SDS011;64008;55.612;37.698;2023-02-26T08:00:36;2.85;;;0.75;;
75427;SDS011;64008;55.612;37.698;2023-02-26T08:03:02;4.43;;;0.52;;
75427;SDS011;64008;55.612;37.698;2023-02-26T08:05:28;2.47;;;0.52;;
75427;SDS011;64008;55.612;37.698;2023-02-26T08:07:54;1.75;;;0.60;;
75427;SDS011;64008;55.612;37.698;2023-02-26T08:10:19;1.83;;;0.52;;
75427;SDS011;64008;55.612;37.698;2023-02-26T08:12:44;2.95;;;0.60;;
75427;SDS011;64008;55.612;37.698;2023-02-26T08:15:10;1.83;;;0.57;;
75427;SDS011;64008;55.612;37.698;2023-02-26T08:17:38;3.33;;;0.80;;
75427;SDS011;64008;55.612;37.698;2023-02-26T08:20:05;2.00;;;0.60;;
75427;SDS011;64008;55.612;37.698;2023-02-26T08:22:31;2.17;;;0.60;;
75427;SDS011;64008;55.612;37.698;2023-02-26T08:24:57;4.95;;;1.00;;
75427;SDS011;64008;55.612;37.698;2023-02-26T08:27:25;4.03;;;0.60;;
75427;SDS011;64008;55.612;37.698;2023-02-26T08:29:51;2.95;;;0.70;;
75427;SDS011;64008;55.612;37.698;2023-02-26T08:32:17;1.50;;;0.60;;
75427;SDS011;64008;55.612;37.698;2023-02-26T08:34:43;2.80;;;0.90;;
75427;SDS011;64008;55.612;37.698;2023-02-26T08:37:10;2.50;;;0.55;;
75427;SDS011;64008;55.612;37.698;2023-02-26T08:39:36;2.22;;;0.65;;
75427;SDS011;64008;55.612;37.698;2023-02-26T08:42:06;3.17;;;0.68;;
75427;SDS011;64008;55.612;37.698;2023-02-26T08:44:32;2.40;;;0.60;;
75427;SDS011;64008;55.612;37.698;2023-02-26T08:46:58;16.77;;;1.45;;
75427;SDS011;64008;55.612;37.698;2023-02-26T08:49:24;4.65;;;0.63;;
75427;SDS011;64008;55.612;37.698;2023-02-26T08:51:49;5.53;;;1.10;;
75427;SDS011;64008;55.612;37.698;2023-02-26T08:54:15;3.05;;;0.70;;
75427;SDS011;64008;55.612;37.698;2023-02-26T08:56:41;4.43;;;0.60;;
75427;SDS011;64008;55.612;37.698;2023-02-26T08:59:06;4.78;;;0.77;;
75427;SDS011;64008;55.612;37.698;2023-02-26T09:01:34;3.40;;;0.63;;
75427;SDS011;64008;55.612;37.698;2023-02-26T09:03:59;3.05;;;0.80;;
75427;SDS011;64008;55.612;37.698;2023-02-26T09:06:25;3.58;;;0.70;;
75427;SDS011;64008;55.612;37.698;2023-02-26T09:08:50;4.28;;;0.68;;
75427;SDS011;64008;55.612;37.698;2023-02-26T09:11:16;3.38;;;0.60;;
75427;SDS011;64008;55.612;37.698;2023-02-26T09:13:41;4.78;;;0.88;;
75427;SDS011;64008;55.612;37.698;2023-02-26T09:16:07;4.18;;;0.70;;
75427;SDS011;64008;55.612;37.698;2023-02-26T09:18:32;2.22;;;0.68;;
75427;SDS011;64008;55.612;37.698;2023-02-26T09:20:59;8.48;;;0.70;;
75427;SDS011;64008;55.612;37.698;2023-02-26T09:23:24;2.10;;;0.50;;
75427;SDS011;64008;55.612;37.698;2023-02-26T09:25:53;1.30;;;0.45;;
75427;SDS011;64008;55.612;37.698;2023-02-26T09:28:20;1.92;;;0.57;;
75427;SDS011;64008;55.612;37.698;2023-02-26T09:30:49;2.22;;;0.60;;
75427;SDS011;64008;55.612;37.698;2023-02-26T09:33:17;2.15;;;0.73;;
75427;SDS011;64008;55.612;37.698;2023-02-26T09:35:42;3.17;;;0.47;;
75427;SDS011;64008;55.612;37.698;2023-02-26T09:38:08;4.00;;;0.50;;
75427;SDS011;64008;55.612;37.698;2023-02-26T09:40:45;2.30;;;0.80;;
75427;SDS011;64008;55.612;37.698;2023-02-26T09:45:43;1.52;;;0.60;;
75427;SDS011;64008;55.612;37.698;2023-02-26T09:48:11;2.75;;;0.68;;
75427;SDS011;64008;55.612;37.698;2023-02-26T09:50:48;3.22;;;0.57;;
75427;SDS011;64008;55.612;37.698;2023-02-26T09:56:30;159.73;;;24.55;;
75427;SDS011;64008;55.612;37.698;2023-02-26T09:59:00;69.50;;;9.98;;
75427;SDS011;64008;55.612;37.698;2023-02-26T10:10:02;45.47;;;7.15;;
75427;SDS011;64008;55.612;37.698;2023-02-26T10:12:50;55.22;;;8.07;;
75427;SDS011;64008;55.612;37.698;2023-02-26T10:18:03;26.63;;;6.18;;
75427;SDS011;64008;55.612;37.698;2023-02-26T10:25:43;33.30;;;5.30;;
75427;SDS011;64008;55.612;37.698;2023-02-26T10:35:52;18.88;;;4.35;;
75427;SDS011;64008;55.612;37.698;2023-02-26T10:38:24;22.45;;;4.55;;
75427;SDS011;64008;55.612;37.698;2023-02-26T10:41:07;15.25;;;3.60;;
75427;SDS011;64008;55.612;37.698;2023-02-26T10:43:38;16.55;;;3.90;;
75427;SDS011;64008;55.612;37.698;2023-02-26T10:51:37;18.92;;;4.93;;
75427;SDS011;64008;55.612;37.698;2023-02-26T10:56:34;15.38;;;2.90;;
75427;SDS011;64008;55.612;37.698;2023-02-26T10:59:00;17.90;;;3.70;;
75427;SDS011;64008;55.612;37.698;2023-02-26T11:01:26;9.32;;;2.63;;
75427;SDS011;64008;55.612;37.698;2023-02-26T11:03:59;16.50;;;4.80;;
75427;SDS011;64008;55.612;37.698;2023-02-26T11:08:57;11.07;;;2.58;;
75427;SDS011;64008;55.612;37.698;2023-02-26T11:11:35;12.68;;;2.38;;
75427;SDS011;64008;55.612;37.698;2023-02-26T11:14:10;13.98;;;2.55;;
75427;SDS011;64008;55.612;37.698;2023-02-26T11:16:41;15.98;;;3.08;;
75427;SDS011;64008;55.612;37.698;2023-02-26T11:19:12;9.93;;;2.40;;
75427;SDS011;64008;55.612;37.698;2023-02-26T11:21:40;10.93;;;2.45;;
75427;SDS011;64008;55.612;37.698;2023-02-26T11:24:14;10.23;;;2.30;;
75427;SDS011;64008;55.612;37.698;2023-02-26T11:26:45;37.80;;;8.25;;
75427;SDS011;64008;55.612;37.698;2023-02-26T11:29:14;28.63;;;6.00;;
75427;SDS011;64008;55.612;37.698;2023-02-26T11:31:41;12.60;;;2.40;;
75427;SDS011;64008;55.612;37.698;2023-02-26T11:34:08;12.68;;;3.20;;
75427;SDS011;64008;55.612;37.698;2023-02-26T11:36:38;13.18;;;3.17;;
75427;SDS011;64008;55.612;37.698;2023-02-26T11:39:07;18.67;;;4.03;;
75427;SDS011;64008;55.612;37.698;2023-02-26T11:41:40;13.10;;;3.00;;
75427;SDS011;64008;55.612;37.698;2023-02-26T11:44:07;12.75;;;2.78;;
75427;SDS011;64008;55.612;37.698;2023-02-26T11:46:52;18.85;;;3.58;;
75427;SDS011;64008;55.612;37.698;2023-02-26T11:49:24;18.40;;;3.55;;
75427;SDS011;64008;55.612;37.698;2023-02-26T11:54:34;15.50;;;3.40;;
75427;SDS011;64008;55.612;37.698;2023-02-26T11:57:02;11.77;;;2.53;;
75427;SDS011;64008;55.612;37.698;2023-02-26T11:59:31;12.75;;;2.50;;
75427;SDS011;64008;55.612;37.698;2023-02-26T12:02:00;12.43;;;2.75;;
75427;SDS011;64008;55.612;37.698;2023-02-26T12:04:28;11.55;;;2.63;;
75427;SDS011;64008;55.612;37.698;2023-02-26T12:06:55;10.70;;;2.38;;
75427;SDS011;64008;55.612;37.698;2023-02-26T12:09:21;17.27;;;2.60;;
75427;SDS011;64008;55.612;37.698;2023-02-26T12:17:23;10.48;;;2.45;;
75427;SDS011;64008;55.612;37.698;2023-02-26T12:20:06;11.40;;;2.78;;
75427;SDS011;64008;55.612;37.698;2023-02-26T12:31:16;15.40;;;2.50;;
75427;SDS011;64008;55.612;37.698;2023-02-26T12:34:08;9.77;;;2.00;;
75427;SDS011;64008;55.612;37.698;2023-02-26T12:36:45;11.95;;;2.30;;
75427;SDS011;64008;55.612;37.698;2023-02-26T12:45:21;8.52;;;2.10;;
75427;SDS011;64008;55.612;37.698;2023-02-26T12:48:09;7.90;;;2.30;;
75427;SDS011;64008;55.612;37.698;2023-02-26T12:51:05;8.30;;;1.80;;
75427;SDS011;64008;55.612;37.698;2023-02-26T12:59:02;7.68;;;1.50;;
75427;SDS011;64008;55.612;37.698;2023-02-26T13:07:15;6.47;;;1.45;;
75427;SDS011;64008;55.612;37.698;2023-02-26T13:15:36;6.70;;;1.50;;
75427;SDS011;64008;55.612;37.698;2023-02-26T13:23:25;8.60;;;1.58;;
75427;SDS011;64008;55.612;37.698;2023-02-26T13:26:02;4.13;;;1.40;;
75427;SDS011;64008;55.612;37.698;2023-02-26T13:31:03;6.90;;;1.40;;
75427;SDS011;64008;55.612;37.698;2023-02-26T13:33:40;5.03;;;1.45;;
75427;SDS011;64008;55.612;37.698;2023-02-26T13:36:09;6.30;;;1.40;;
75427;SDS011;64008;55.612;37.698;2023-02-26T13:47:45;3.70;;;1.25;;
75427;SDS011;64008;55.612;37.698;2023-02-26T13:58:47;4.13;;;1.00;;
75427;SDS011;64008;55.612;37.698;2023-02-26T14:04:07;3.40;;;1.13;;
75427;SDS011;64008;55.612;37.698;2023-02-26T14:12:24;4.28;;;1.20;;
75427;SDS011;64008;55.612;37.698;2023-02-26T14:17:28;8.40;;;1.63;;
75427;SDS011;64008;55.612;37.698;2023-02-26T14:25:37;5.63;;;1.27;;
75427;SDS011;64008;55.612;37.698;2023-02-26T14:28:20;5.35;;;1.70;;
75427;SDS011;64008;55.612;37.698;2023-02-26T14:31:11;5.00;;;1.65;;
75427;SDS011;64008;55.612;37.698;2023-02-26T14:36:26;5.78;;;1.75;;
75427;SDS011;64008;55.612;37.698;2023-02-26T14:39:26;11.73;;;2.20;;
75427;SDS011;64008;55.612;37.698;2023-02-26T14:42:10;4.00;;;2.60;;
75427;SDS011;64008;55.612;37.698;2023-02-26T14:44:42;4.68;;;2.30;;
75427;SDS011;64008;55.612;37.698;2023-02-26T14:47:10;4.82;;;2.58;;
75427;SDS011;64008;55.612;37.698;2023-02-26T14:49:38;6.35;;;2.20;;
75427;SDS011;64008;55.612;37.698;2023-02-26T15:00:48;6.00;;;2.70;;
75427;SDS011;64008;55.612;37.698;2023-02-26T15:14:52;5.50;;;2.22;;
75427;SDS011;64008;55.612;37.698;2023-02-26T15:20:17;5.97;;;2.75;;
75427;SDS011;64008;55.612;37.698;2023-02-26T15:25:45;5.85;;;2.92;;
75427;SDS011;64008;55.612;37.698;2023-02-26T15:28:06;4.72;;;2.30;;
75427;SDS011;64008;55.612;37.698;2023-02-26T15:30:35;5.80;;;2.70;;
75427;SDS011;64008;55.612;37.698;2023-02-26T15:33:06;5.85;;;2.80;;
75427;SDS011;64008;55.612;37.698;2023-02-26T15:35:37;5.72;;;2.80;;
75427;SDS011;64008;55.612;37.698;2023-02-26T15:38:02;5.53;;;3.28;;
75427;SDS011;64008;55.612;37.698;2023-02-26T15:40:33;4.50;;;2.35;;
75427;SDS011;64008;55.612;37.698;2023-02-26T15:43:01;6.07;;;2.78;;
75427;SDS011;64008;55.612;37.698;2023-02-26T15:48:00;5.53;;;2.38;;
75427;SDS011;64008;55.612;37.698;2023-02-26T15:50:28;6.10;;;2.80;;
75427;SDS011;64008;55.612;37.698;2023-02-26T15:52:59;5.22;;;2.60;;
75427;SDS011;64008;55.612;37.698;2023-02-26T15:55:27;4.75;;;2.55;;
75427;SDS011;64008;55.612;37.698;2023-02-26T16:00:24;5.88;;;2.42;;
75427;SDS011;64008;55.612;37.698;2023-02-26T16:02:53;6.00;;;2.78;;
75427;SDS011;64008;55.612;37.698;2023-02-26T16:05:21;5.97;;;2.67;;
75427;SDS011;64008;55.612;37.698;2023-02-26T16:10:35;5.68;;;2.80;;
75427;SDS011;64008;55.612;37.698;2023-02-26T16:13:02;4.65;;;2.53;;
75427;SDS011;64008;55.612;37.698;2023-02-26T16:15:33;5.15;;;2.50;;
75427;SDS011;64008;55.612;37.698;2023-02-26T16:18:04;6.63;;;3.13;;
75427;SDS011;64008;55.612;37.698;2023-02-26T16:20:36;5.22;;;2.55;;
75427;SDS011;64008;55.612;37.698;2023-02-26T16:23:12;5.43;;;2.55;;
75427;SDS011;64008;55.612;37.698;2023-02-26T16:25:41;5.40;;;2.97;;
75427;SDS011;64008;55.612;37.698;2023-02-26T16:28:15;5.43;;;2.67;;
75427;SDS011;64008;55.612;37.698;2023-02-26T16:30:46;5.07;;;2.50;;
75427;SDS011;64008;55.612;37.698;2023-02-26T16:33:16;6.65;;;2.72;;
75427;SDS011;64008;55.612;37.698;2023-02-26T16:35:44;5.15;;;2.63;;
75427;SDS011;64008;55.612;37.698;2023-02-26T16:38:16;7.20;;;2.58;;
75427;SDS011;64008;55.612;37.698;2023-02-26T16:40:44;5.50;;;2.28;;
75427;SDS011;64008;55.612;37.698;2023-02-26T16:45:49;7.30;;;2.90;;
75427;SDS011;64008;55.612;37.698;2023-02-26T16:48:23;6.55;;;3.58;;
75427;SDS011;64008;55.612;37.698;2023-02-26T16:50:58;4.57;;;2.50;;
75427;SDS011;64008;55.612;37.698;2023-02-26T16:53:29;7.53;;;2.22;;
75427;SDS011;64008;55.612;37.698;2023-02-26T16:55:58;5.18;;;2.38;;
75427;SDS011;64008;55.612;37.698;2023-02-26T16:58:24;5.80;;;2.75;;
75427;SDS011;64008;55.612;37.698;2023-02-26T17:00:54;5.53;;;2.83;;
75427;SDS011;64008;55.612;37.698;2023-02-26T17:03:28;7.43;;;3.08;;
75427;SDS011;64008;55.612;37.698;2023-02-26T17:05:55;5.75;;;2.78;;
75427;SDS011;64008;55.612;37.698;2023-02-26T17:08:52;5.03;;;2.63;;
75427;SDS011;64008;55.612;37.698;2023-02-26T17:11:25;5.57;;;2.92;;
75427;SDS011;64008;55.612;37.698;2023-02-26T17:16:43;14.98;;;3.00;;
75427;SDS011;64008;55.612;37.698;2023-02-26T17:19:10;11.13;;;2.50;;
75427;SDS011;64008;55.612;37.698;2023-02-26T17:21:36;5.90;;;2.53;;
75427;SDS011;64008;55.612;37.698;2023-02-26T17:24:28;8.95;;;3.08;;
75427;SDS011;64008;55.612;37.698;2023-02-26T17:26:55;6.70;;;2.70;;
75427;SDS011;64008;55.612;37.698;2023-02-26T17:29:30;9.27;;;2.50;;
75427;SDS011;64008;55.612;37.698;2023-02-26T17:31:57;5.60;;;2.58;;
75427;SDS011;64008;55.612;37.698;2023-02-26T17:34:23;5.72;;;2.65;;
75427;SDS011;64008;55.612;37.698;2023-02-26T17:36:48;6.55;;;2.38;;
75427;SDS011;64008;55.612;37.698;2023-02-26T17:39:14;6.20;;;2.80;;
75427;SDS011;64008;55.612;37.698;2023-02-26T17:41:43;7.90;;;2.83;;
75427;SDS011;64008;55.612;37.698;2023-02-26T17:44:09;5.72;;;2.70;;
75427;SDS011;64008;55.612;37.698;2023-02-26T17:46:34;6.05;;;2.53;;
75427;SDS011;64008;55.612;37.698;2023-02-26T17:49:00;6.65;;;2.60;;
75427;SDS011;64008;55.612;37.698;2023-02-26T17:51:25;5.85;;;2.67;;
75427;SDS011;64008;55.612;37.698;2023-02-26T17:53:51;4.82;;;2.42;;
75427;SDS011;64008;55.612;37.698;2023-02-26T17:56:21;5.93;;;2.60;;
75427;SDS011;64008;55.612;37.698;2023-02-26T17:58:49;6.07;;;2.90;;
75427;SDS011;64008;55.612;37.698;2023-02-26T18:01:16;8.02;;;2.95;;
75427;SDS011;64008;55.612;37.698;2023-02-26T18:03:42;6.55;;;2.42;;
75427;SDS011;64008;55.612;37.698;2023-02-26T18:06:08;7.95;;;2.72;;
75427;SDS011;64008;55.612;37.698;2023-02-26T18:08:37;5.53;;;2.40;;
75427;SDS011;64008;55.612;37.698;2023-02-26T18:11:04;7.07;;;2.53;;
75427;SDS011;64008;55.612;37.698;2023-02-26T18:13:31;6.65;;;2.83;;
75427;SDS011;64008;55.612;37.698;2023-02-26T18:15:57;6.30;;;2.63;;
75427;SDS011;64008;55.612;37.698;2023-02-26T18:18:26;627.40;;;186.10;;
75427;SDS011;64008;55.612;37.698;2023-02-26T18:20:52;1842.70;;;583.63;;
75427;SDS011;64008;55.612;37.698;2023-02-26T18:23:18;1917.97;;;632.50;;
75427;SDS011;64008;55.612;37.698;2023-02-26T18:25:44;779.65;;;251.77;;
75427;SDS011;64008;55.612;37.698;2023-02-26T18:28:16;442.77;;;117.35;;
75427;SDS011;64008;55.612;37.698;2023-02-26T18:30:46;331.38;;;81.00;;
75427;SDS011;64008;55.612;37.698;2023-02-26T18:33:12;188.25;;;43.15;;
75427;SDS011;64008;55.612;37.698;2023-02-26T18:35:41;88.07;;;21.52;;
75427;SDS011;64008;55.612;37.698;2023-02-26T18:38:14;64.95;;;16.27;;
75427;SDS011;64008;55.612;37.698;2023-02-26T18:40:42;32.63;;;10.65;;
75427;SDS011;64008;55.612;37.698;2023-02-26T18:43:09;76.65;;;19.88;;
75427;SDS011;64008;55.612;37.698;2023-02-26T18:45:40;82.32;;;18.40;;
75427;SDS011;64008;55.612;37.698;2023-02-26T18:48:06;92.57;;;21.15;;